Time;durP1;ratioP1;P1;durP2;ratioP2;P2;SDS_P1;SDS_P2;PMS_P1;PMS_P2;Temp;Humidity;BMP_temperature;BMP_pressure;BME280_temperature;BME280_humidity;BME280_pressure;Samples;Min_cycle;Max_cycle;Signal;HPM_P1;HPM_P2
2022/07/28 00:00:43;;;;;;;9.02;2.53;;;21.10;99.90;;;;;;5025768;28;20056;-82
2022/07/28 00:03:10;;;;;;;8.60;1.70;;;21.10;99.90;;;;;;5027973;28;20061;-82
2022/07/28 00:05:37;;;;;;;3.08;1.30;;;21.00;99.90;;;;;;5024605;28;20660;-82
2022/07/28 00:08:04;;;;;;;2.70;1.60;;;21.00;99.90;;;;;;5023802;28;20137;-82
2022/07/28 00:10:31;;;;;;;6.85;2.08;;;21.00;99.90;;;;;;5023114;28;20491;-82
2022/07/28 00:13:01;;;;;;;3.35;1.45;;;20.90;99.90;;;;;;5024775;28;20475;-83
2022/07/28 00:15:32;;;;;;;2.30;1.50;;;20.90;99.90;;;;;;5025304;28;20077;-83
2022/07/28 00:17:59;;;;;;;10.07;1.80;;;20.90;99.90;;;;;;5030550;28;20050;-83
2022/07/28 00:20:26;;;;;;;4.38;1.50;;;20.80;99.90;;;;;;5026530;28;20145;-83
2022/07/28 00:22:53;;;;;;;4.63;1.80;;;20.80;99.90;;;;;;5025559;28;20517;-82
2022/07/28 00:25:20;;;;;;;6.68;1.75;;;20.80;99.90;;;;;;5026784;28;20053;-82
2022/07/28 00:27:47;;;;;;;5.13;1.40;;;20.70;99.90;;;;;;5017210;28;20120;-82
2022/07/28 00:30:14;;;;;;;5.60;2.10;;;20.70;99.90;;;;;;5017356;28;20455;-82
2022/07/28 00:32:41;;;;;;;4.70;2.00;;;20.60;99.90;;;;;;5024264;28;20450;-83
2022/07/28 00:35:08;;;;;;;3.38;1.80;;;20.60;99.90;;;;;;5024646;28;20076;-82
2022/07/28 00:37:35;;;;;;;5.90;1.77;;;20.50;99.90;;;;;;5026315;28;20054;-83
2022/07/28 00:40:07;;;;;;;5.20;1.88;;;20.50;99.90;;;;;;5034215;28;20088;-83
2022/07/28 00:42:33;;;;;;;8.02;2.17;;;20.50;99.90;;;;;;5017669;28;20095;-82
2022/07/28 00:45:00;;;;;;;6.88;1.83;;;20.50;99.90;;;;;;5023227;28;20550;-83
2022/07/28 00:47:27;;;;;;;4.00;1.80;;;20.40;99.90;;;;;;5022102;28;20089;-83
2022/07/28 00:50:00;;;;;;;7.35;2.17;;;20.40;99.90;;;;;;5020044;28;20050;-83
2022/07/28 00:52:27;;;;;;;2.65;1.90;;;20.40;99.90;;;;;;5022617;28;20108;-82
2022/07/28 00:54:55;;;;;;;4.70;1.60;;;20.40;99.90;;;;;;5020286;28;20050;-82
2022/07/28 00:57:22;;;;;;;7.70;2.55;;;20.30;99.90;;;;;;5022394;28;20049;-84
2022/07/28 00:59:48;;;;;;;2.38;1.95;;;20.30;99.90;;;;;;5025924;28;20478;-83
2022/07/28 01:02:15;;;;;;;1.90;1.60;;;20.20;99.90;;;;;;5026621;28;20075;-83
2022/07/28 01:04:42;;;;;;;3.03;1.80;;;20.20;99.90;;;;;;5031191;28;20103;-82
2022/07/28 01:07:19;;;;;;;3.92;1.90;;;20.20;99.90;;;;;;5023282;28;20092;-82
2022/07/28 01:09:57;;;;;;;2.80;1.75;;;20.20;99.90;;;;;;5027243;28;20069;-83
2022/07/28 01:12:32;;;;;;;3.90;1.75;;;20.20;99.90;;;;;;5038829;28;20580;-82
2022/07/28 01:14:58;;;;;;;3.90;1.90;;;20.10;99.90;;;;;;5032780;28;20041;-83
2022/07/28 01:17:34;;;;;;;6.45;1.92;;;20.10;99.90;;;;;;5032881;28;20469;-82
2022/07/28 01:20:12;;;;;;;3.72;2.00;;;20.10;99.90;;;;;;5031279;28;20081;-83
2022/07/28 01:22:44;;;;;;;5.07;2.00;;;20.10;99.90;;;;;;5033403;28;20053;-82
2022/07/28 01:25:21;;;;;;;3.55;1.95;;;20.00;99.90;;;;;;5030149;28;20079;-83
2022/07/28 01:28:15;;;;;;;4.93;2.22;;;20.10;99.90;;;;;;5031817;28;20054;-82
2022/07/28 01:30:46;;;;;;;4.25;2.28;;;20.00;99.90;;;;;;5033742;28;20088;-82
2022/07/28 01:33:43;;;;;;;4.68;2.13;;;19.80;99.90;;;;;;5027404;28;20085;-83
2022/07/28 01:36:15;;;;;;;4.22;1.75;;;19.70;99.90;;;;;;5034202;28;20496;-83
2022/07/28 01:38:44;;;;;;;3.03;2.20;;;19.60;99.90;;;;;;5037584;28;20053;-83
2022/07/28 01:41:16;;;;;;;5.50;2.55;;;19.40;99.90;;;;;;5041356;28;20080;-83
2022/07/28 01:43:50;;;;;;;6.55;2.30;;;19.30;99.90;;;;;;5035446;28;20050;-83
2022/07/28 01:46:19;;;;;;;2.97;2.33;;;19.30;99.90;;;;;;5037338;28;20054;-83
2022/07/28 01:48:47;;;;;;;2.58;1.70;;;19.40;99.90;;;;;;5043528;28;20067;-83
2022/07/28 01:51:15;;;;;;;4.75;2.03;;;19.40;99.90;;;;;;5044576;28;20046;-82
2022/07/28 01:53:44;;;;;;;6.00;2.20;;;19.30;99.90;;;;;;5036940;28;20511;-83
2022/07/28 01:56:14;;;;;;;5.60;2.28;;;19.30;99.90;;;;;;5032623;28;20050;-83
2022/07/28 01:58:43;;;;;;;3.17;1.85;;;19.20;99.90;;;;;;5029184;28;20054;-82
2022/07/28 02:01:11;;;;;;;3.40;1.75;;;19.20;99.90;;;;;;5033342;28;20088;-83
2022/07/28 02:03:40;;;;;;;3.90;1.95;;;19.10;99.90;;;;;;5031049;28;20054;-83
2022/07/28 02:06:08;;;;;;;4.38;2.28;;;19.10;99.90;;;;;;5031032;28;20133;-83
2022/07/28 02:08:37;;;;;;;4.28;1.90;;;19.00;99.90;;;;;;5033732;28;20129;-82
2022/07/28 02:13:52;;;;;;;3.45;2.03;;;19.00;99.90;;;;;;5030354;28;20109;-82
2022/07/28 02:16:22;;;;;;;3.65;2.63;;;18.90;99.90;;;;;;5035988;28;20060;-82
2022/07/28 02:18:50;;;;;;;5.57;2.05;;;18.90;99.90;;;;;;5042656;28;20081;-82
2022/07/28 02:21:18;;;;;;;6.85;3.00;;;18.80;99.90;;;;;;5041403;28;20066;-82
2022/07/28 02:23:47;;;;;;;3.45;2.10;;;18.70;99.90;;;;;;5043099;28;20050;-82
2022/07/28 02:26:15;;;;;;;4.00;2.00;;;18.60;99.90;;;;;;5040889;28;20061;-82
2022/07/28 02:28:46;;;;;;;4.65;2.35;;;18.50;99.90;;;;;;5041303;28;20056;-82
2022/07/28 02:31:19;;;;;;;6.28;2.50;;;18.50;99.90;;;;;;5043294;28;20065;-82
2022/07/28 02:33:47;;;;;;;4.55;2.28;;;18.40;99.90;;;;;;5037326;28;20077;-82
2022/07/28 02:36:33;;;;;;;6.32;2.25;;;18.40;99.90;;;;;;5041220;28;20041;-81
2022/07/28 02:39:06;;;;;;;5.10;2.40;;;18.50;99.90;;;;;;5032528;28;20054;-82
2022/07/28 02:41:38;;;;;;;5.43;1.90;;;18.40;99.90;;;;;;5031696;28;20045;-82
2022/07/28 02:44:12;;;;;;;2.97;2.40;;;18.40;99.90;;;;;;5033804;28;20073;-83
2022/07/28 02:46:45;;;;;;;4.90;2.38;;;18.20;99.90;;;;;;5031564;28;20049;-83
2022/07/28 02:49:18;;;;;;;5.50;2.65;;;18.20;99.90;;;;;;5030384;28;20046;-82
2022/07/28 02:51:47;;;;;;;5.00;2.60;;;18.20;99.90;;;;;;5027809;28;20049;-83
2022/07/28 02:54:16;;;;;;;6.13;2.25;;;18.10;99.90;;;;;;5033114;28;20104;-83
2022/07/28 02:56:46;;;;;;;4.73;2.50;;;18.00;99.90;;;;;;5032979;28;20041;-82
2022/07/28 02:59:20;;;;;;;8.70;2.60;;;18.10;99.90;;;;;;5027629;28;20289;-83
2022/07/28 03:01:48;;;;;;;6.18;2.35;;;18.10;99.90;;;;;;5032845;28;20055;-82
2022/07/28 03:04:55;;;;;;;2.90;2.25;;;17.90;99.90;;;;;;5033700;28;20054;-83
2022/07/28 03:07:06;;;;;;;5.32;2.33;;;17.90;99.90;;;;;;5030114;28;20133;-82
2022/07/28 03:09:46;;;;;;;4.78;2.28;;;17.90;99.90;;;;;;5029931;28;20077;-83
2022/07/28 03:12:13;;;;;;;4.28;2.30;;;17.90;99.90;;;;;;5029233;28;20086;-83
2022/07/28 03:14:40;;;;;;;6.88;2.47;;;17.80;99.90;;;;;;5031310;28;20136;-82
2022/07/28 03:17:08;;;;;;;2.85;2.03;;;17.80;99.90;;;;;;5032399;28;20054;-83
2022/07/28 03:19:35;;;;;;;3.58;2.45;;;17.70;99.90;;;;;;5028513;28;20587;-82
2022/07/28 03:22:03;;;;;;;3.30;2.80;;;17.70;99.90;;;;;;5032388;28;20050;-83
2022/07/28 03:24:34;;;;;;;3.17;1.95;;;17.50;99.90;;;;;;5035025;28;20049;-82
2022/07/28 03:27:10;;;;;;;3.30;2.20;;;17.60;99.90;;;;;;5031655;28;20080;-82
2022/07/28 03:29:39;;;;;;;5.75;2.13;;;17.70;99.90;;;;;;5023280;28;20057;-82
2022/07/28 03:32:07;;;;;;;4.38;2.22;;;17.80;99.90;;;;;;5032191;28;20113;-82
2022/07/28 03:34:34;;;;;;;3.80;2.03;;;17.90;99.90;;;;;;5031558;28;20144;-82
2022/07/28 03:37:09;;;;;;;6.63;2.50;;;17.90;99.90;;;;;;5029213;28;20104;-82
2022/07/28 03:39:44;;;;;;;4.75;2.50;;;17.90;99.90;;;;;;5027078;28;20054;-82
2022/07/28 03:42:11;;;;;;;4.93;2.80;;;17.90;99.90;;;;;;5028273;28;20073;-82
2022/07/28 03:44:39;;;;;;;4.22;2.10;;;17.90;99.90;;;;;;5032139;28;20049;-82
2022/07/28 03:47:06;;;;;;;4.28;2.47;;;17.80;99.90;;;;;;5028837;28;20060;-82
2022/07/28 03:49:33;;;;;;;2.97;2.60;;;17.70;99.90;;;;;;5030755;28;20081;-83
2022/07/28 03:51:59;;;;;;;3.75;2.55;;;17.70;99.90;;;;;;5030660;28;20041;-83
2022/07/28 03:54:26;;;;;;;6.97;2.58;;;17.70;99.90;;;;;;5029721;28;20070;-83
2022/07/28 03:56:53;;;;;;;3.88;2.47;;;17.70;99.90;;;;;;5030650;28;20049;-83
2022/07/28 03:59:20;;;;;;;4.13;2.45;;;17.60;99.90;;;;;;5028086;28;20061;-83
2022/07/28 04:01:47;;;;;;;5.28;2.78;;;17.60;99.90;;;;;;5030133;28;20491;-83
2022/07/28 04:04:13;;;;;;;3.63;2.28;;;17.70;99.90;;;;;;5029186;28;20470;-83
2022/07/28 04:06:41;;;;;;;5.88;2.20;;;17.60;99.90;;;;;;5027502;28;20046;-83
2022/07/28 04:09:08;;;;;;;9.38;4.07;;;17.50;99.90;;;;;;5030362;28;20045;-83
2022/07/28 04:11:34;;;;;;;2.75;1.85;;;17.50;99.90;;;;;;5027783;28;20046;-83
2022/07/28 04:14:01;;;;;;;5.95;2.85;;;17.50;99.90;;;;;;5024673;28;20073;-83
2022/07/28 04:16:28;;;;;;;5.45;2.05;;;17.40;99.90;;;;;;5030155;28;20073;-83
2022/07/28 04:18:55;;;;;;;4.72;2.20;;;17.40;99.90;;;;;;5030323;28;20058;-83
2022/07/28 04:21:21;;;;;;;6.93;2.40;;;17.40;99.90;;;;;;5033695;28;20091;-83
2022/07/28 04:23:48;;;;;;;2.72;2.20;;;17.50;99.90;;;;;;5030057;28;20080;-83
2022/07/28 04:26:16;;;;;;;4.47;2.45;;;17.60;99.90;;;;;;5027106;28;20054;-83
2022/07/28 04:28:44;;;;;;;8.48;3.17;;;17.60;99.90;;;;;;5024220;28;20085;-83
2022/07/28 04:31:11;;;;;;;3.75;2.30;;;17.60;99.90;;;;;;5029664;28;20530;-83
2022/07/28 04:33:38;;;;;;;4.55;2.17;;;17.50;99.90;;;;;;5027726;28;20049;-83
2022/07/28 04:36:05;;;;;;;4.28;2.35;;;17.60;99.90;;;;;;5026417;28;20042;-83
2022/07/28 04:38:33;;;;;;;4.20;2.90;;;17.60;99.90;;;;;;5030156;28;20049;-83
2022/07/28 04:41:00;;;;;;;5.68;2.63;;;17.50;99.90;;;;;;5022673;28;20056;-82
2022/07/28 04:43:26;;;;;;;4.03;2.50;;;17.50;99.90;;;;;;5026444;28;20049;-83
2022/07/28 04:45:53;;;;;;;4.90;2.55;;;17.40;99.90;;;;;;5025563;28;20140;-82
2022/07/28 04:48:21;;;;;;;4.05;2.75;;;17.40;99.90;;;;;;5036333;28;20535;-80
2022/07/28 04:50:51;;;;;;;3.80;2.45;;;17.40;99.90;;;;;;5031188;28;20418;-83
2022/07/28 04:53:18;;;;;;;4.77;2.63;;;17.40;99.90;;;;;;5024472;28;20312;-83
2022/07/28 04:55:45;;;;;;;3.05;2.38;;;17.50;99.90;;;;;;5028854;28;20316;-83
2022/07/28 04:58:12;;;;;;;3.35;2.10;;;17.50;99.90;;;;;;5028797;28;20057;-82
2022/07/28 05:00:39;;;;;;;5.53;2.20;;;17.50;99.90;;;;;;5028383;28;20045;-82
2022/07/28 05:03:06;;;;;;;3.70;2.72;;;17.60;99.90;;;;;;5030208;28;20057;-82
2022/07/28 05:05:32;;;;;;;4.75;2.28;;;17.70;99.90;;;;;;5027401;28;20117;-82
2022/07/28 05:07:59;;;;;;;4.10;2.28;;;17.90;99.90;;;;;;5030476;28;20088;-83
2022/07/28 05:10:26;;;;;;;2.92;2.08;;;18.00;99.90;;;;;;5033213;28;20053;-83
2022/07/28 05:12:53;;;;;;;3.90;2.30;;;18.10;99.90;;;;;;5034670;28;20076;-83
2022/07/28 05:15:20;;;;;;;3.70;2.38;;;18.20;99.90;;;;;;5040277;28;20050;-82
2022/07/28 05:17:48;;;;;;;3.88;2.33;;;18.40;99.90;;;;;;5020944;28;20058;-82
2022/07/28 05:20:16;;;;;;;4.75;2.00;;;18.40;99.90;;;;;;5022017;28;20141;-83
2022/07/28 05:22:49;;;;;;;2.75;1.80;;;18.60;99.90;;;;;;5027712;28;20057;-82
2022/07/28 05:25:18;;;;;;;3.95;1.92;;;18.70;99.90;;;;;;5028424;28;20060;-82
2022/07/28 05:27:46;;;;;;;3.88;2.35;;;18.70;99.90;;;;;;5023743;28;20132;-83
2022/07/28 05:30:14;;;;;;;3.80;2.08;;;18.80;99.90;;;;;;5021399;28;20042;-83
2022/07/28 05:32:41;;;;;;;5.95;1.83;;;18.90;99.90;;;;;;5026093;28;20123;-83
2022/07/28 05:35:08;;;;;;;4.82;2.47;;;19.00;99.90;;;;;;5024604;28;20049;-82
2022/07/28 05:37:36;;;;;;;5.88;2.20;;;19.10;99.90;;;;;;5024361;28;20084;-82
2022/07/28 05:40:15;;;;;;;7.32;2.15;;;19.20;99.90;;;;;;5026066;28;20056;-82
2022/07/28 05:42:42;;;;;;;6.30;1.77;;;19.20;99.90;;;;;;5022668;28;20073;-82
2022/07/28 05:45:10;;;;;;;4.10;1.60;;;19.20;99.90;;;;;;5024892;28;20057;-83
2022/07/28 05:47:45;;;;;;;4.13;1.83;;;19.30;99.90;;;;;;5020774;28;20467;-82
2022/07/28 05:50:13;;;;;;;8.55;2.20;;;19.30;99.90;;;;;;5026284;28;20088;-82
2022/07/28 05:52:40;;;;;;;7.30;2.40;;;19.40;99.90;;;;;;5028058;28;20088;-83
2022/07/28 05:55:07;;;;;;;4.70;1.88;;;19.30;99.90;;;;;;5028749;28;20124;-82
2022/07/28 05:57:35;;;;;;;6.25;2.25;;;19.30;99.90;;;;;;5036425;28;20041;-82
2022/07/28 06:00:05;;;;;;;6.47;2.60;;;19.40;99.90;;;;;;5028207;28;20171;-83
2022/07/28 06:02:32;;;;;;;6.63;2.15;;;19.40;99.90;;;;;;5034122;28;20071;-83
2022/07/28 06:04:58;;;;;;;5.90;1.73;;;19.40;99.90;;;;;;5038703;28;20042;-82
2022/07/28 06:07:26;;;;;;;4.30;1.77;;;19.40;99.90;;;;;;5042656;28;20050;-82
2022/07/28 06:10:18;;;;;;;5.80;1.73;;;19.40;99.90;;;;;;5042728;28;20045;-82
2022/07/28 06:12:50;;;;;;;5.80;1.60;;;19.50;99.90;;;;;;5027587;28;20049;-83
2022/07/28 06:15:20;;;;;;;7.07;1.80;;;19.40;99.90;;;;;;5024997;28;20070;-83
2022/07/28 06:17:51;;;;;;;3.28;1.67;;;19.50;99.90;;;;;;5023393;28;20136;-82
2022/07/28 06:20:19;;;;;;;4.63;2.28;;;19.60;99.90;;;;;;5024911;28;20042;-83
2022/07/28 06:22:48;;;;;;;7.03;1.88;;;19.70;99.90;;;;;;5023702;28;20046;-82
2022/07/28 06:25:21;;;;;;;3.80;2.03;;;19.70;99.90;;;;;;5024633;28;20072;-84
2022/07/28 06:27:52;;;;;;;3.60;2.25;;;19.80;99.90;;;;;;5026899;28;20119;-83
2022/07/28 06:30:20;;;;;;;4.07;1.42;;;19.90;99.90;;;;;;5027566;28;20049;-84
2022/07/28 06:32:47;;;;;;;7.32;2.17;;;19.90;99.90;;;;;;5031270;28;20077;-83
2022/07/28 06:35:15;;;;;;;6.18;1.77;;;19.90;99.90;;;;;;5030620;28;20490;-84
2022/07/28 06:37:43;;;;;;;6.07;2.10;;;20.00;99.90;;;;;;5031878;28;20467;-84
2022/07/28 06:40:11;;;;;;;3.70;1.52;;;20.10;99.90;;;;;;5032472;28;20053;-84
2022/07/28 06:42:39;;;;;;;5.95;1.88;;;20.10;99.90;;;;;;5030823;28;20081;-84
2022/07/28 06:45:07;;;;;;;5.35;1.75;;;20.00;99.90;;;;;;5032608;28;20105;-84
2022/07/28 06:47:45;;;;;;;4.78;1.70;;;20.00;99.90;;;;;;5029546;28;20081;-84
2022/07/28 06:50:13;;;;;;;8.02;1.98;;;20.00;99.90;;;;;;5032881;28;20053;-83
2022/07/28 06:52:54;;;;;;;5.13;1.67;;;20.10;99.90;;;;;;5032261;28;20045;-83
2022/07/28 06:55:20;;;;;;;8.68;1.77;;;20.10;99.90;;;;;;5032984;28;20137;-82
2022/07/28 06:57:48;;;;;;;5.43;2.47;;;20.10;99.90;;;;;;5029561;28;20494;-83
2022/07/28 07:00:15;;;;;;;4.95;1.80;;;20.20;99.90;;;;;;5030569;28;20084;-83
2022/07/28 07:02:42;;;;;;;8.80;1.70;;;20.20;99.90;;;;;;5030665;28;20073;-83
2022/07/28 07:05:10;;;;;;;5.35;2.03;;;20.30;99.90;;;;;;5033693;28;20065;-82
2022/07/28 07:07:37;;;;;;;7.75;1.90;;;20.20;99.90;;;;;;5034156;28;20048;-83
2022/07/28 07:10:09;;;;;;;3.22;1.70;;;20.20;99.90;;;;;;5030384;28;20042;-83
2022/07/28 07:12:36;;;;;;;4.40;1.98;;;20.10;99.90;;;;;;5030318;28;20089;-82
2022/07/28 07:15:04;;;;;;;5.88;1.98;;;20.20;99.90;;;;;;5033311;28;20053;-83
2022/07/28 07:17:31;;;;;;;4.78;1.70;;;20.20;99.90;;;;;;5031115;28;20572;-82
2022/07/28 07:19:58;;;;;;;6.93;1.65;;;20.20;99.90;;;;;;5032467;28;20058;-82
2022/07/28 07:22:25;;;;;;;7.88;1.95;;;20.30;99.90;;;;;;5031595;28;20482;-83
2022/07/28 07:24:51;;;;;;;5.30;1.60;;;20.30;99.90;;;;;;5029971;28;20085;-83
2022/07/28 07:27:23;;;;;;;3.78;1.40;;;20.30;99.90;;;;;;5030605;28;20065;-82
2022/07/28 07:29:50;;;;;;;2.33;1.30;;;20.40;99.90;;;;;;5033450;28;20084;-83
2022/07/28 07:32:16;;;;;;;4.65;1.73;;;20.30;99.90;;;;;;5028574;28;20116;-82
2022/07/28 07:34:43;;;;;;;8.18;1.83;;;20.30;99.90;;;;;;5029515;28;20058;-82
2022/07/28 07:37:12;;;;;;;3.28;0.90;;;20.40;99.90;;;;;;5030802;28;20076;-82
2022/07/28 07:39:40;;;;;;;5.03;1.50;;;20.40;99.90;;;;;;5031177;28;20503;-82
2022/07/28 07:42:07;;;;;;;5.35;1.73;;;20.50;99.90;;;;;;5027462;28;20049;-83
2022/07/28 07:44:34;;;;;;;6.47;1.83;;;20.50;99.90;;;;;;5025118;28;20081;-82
2022/07/28 07:47:00;;;;;;;4.03;1.40;;;20.50;99.90;;;;;;5031362;28;20065;-83
2022/07/28 07:49:27;;;;;;;6.78;1.63;;;20.60;99.90;;;;;;5031255;28;20053;-83
2022/07/28 07:52:13;;;;;;;4.28;1.42;;;20.60;99.90;;;;;;5027572;28;20538;-83
2022/07/28 07:54:40;;;;;;;4.53;1.60;;;20.70;99.90;;;;;;5030291;28;20534;-82
2022/07/28 07:57:07;;;;;;;6.43;1.60;;;20.70;99.90;;;;;;5039136;28;20145;-83
2022/07/28 07:59:34;;;;;;;5.05;1.80;;;20.80;99.90;;;;;;5031539;28;20050;-82
2022/07/28 08:02:01;;;;;;;4.90;1.98;;;20.80;99.90;;;;;;5034662;28;20089;-82
2022/07/28 08:04:28;;;;;;;5.32;1.58;;;20.80;99.90;;;;;;5031118;28;20076;-83
2022/07/28 08:06:55;;;;;;;4.20;1.30;;;20.90;99.90;;;;;;5028770;28;20069;-82
2022/07/28 08:09:22;;;;;;;3.60;1.80;;;20.90;99.90;;;;;;5030288;28;20056;-82
2022/07/28 08:11:49;;;;;;;8.70;1.70;;;21.00;99.90;;;;;;5030498;28;20494;-82
2022/07/28 08:14:16;;;;;;;4.30;1.60;;;21.10;99.90;;;;;;5029939;28;20565;-83
2022/07/28 08:16:43;;;;;;;4.38;1.30;;;21.20;99.90;;;;;;5025471;28;20140;-83
2022/07/28 08:19:10;;;;;;;4.32;1.65;;;21.20;99.90;;;;;;5030886;28;20100;-83
2022/07/28 08:21:37;;;;;;;4.47;1.45;;;21.30;99.90;;;;;;5028733;28;20084;-83
2022/07/28 08:24:04;;;;;;;6.75;1.90;;;21.30;99.90;;;;;;5030335;28;20083;-83
2022/07/28 08:26:31;;;;;;;8.85;1.55;;;21.40;99.90;;;;;;5034133;28;20053;-83
2022/07/28 08:28:58;;;;;;;9.48;1.90;;;21.40;99.90;;;;;;5029634;28;20048;-83
2022/07/28 08:31:25;;;;;;;7.10;1.60;;;21.50;99.90;;;;;;5033311;28;20045;-83
2022/07/28 08:33:52;;;;;;;10.13;2.00;;;21.60;99.90;;;;;;5030361;28;20052;-83
2022/07/28 08:36:21;;;;;;;11.50;1.52;;;21.70;99.90;;;;;;5028819;28;20173;-83
2022/07/28 08:38:48;;;;;;;6.60;1.45;;;21.80;99.90;;;;;;5030663;28;20551;-83
2022/07/28 08:41:45;;;;;;;12.07;1.33;;;21.80;99.90;;;;;;5026258;28;20050;-83
2022/07/28 08:44:15;;;;;;;12.65;1.63;;;21.80;99.90;;;;;;5023966;28;20483;-83
2022/07/28 08:46:42;;;;;;;4.20;1.60;;;21.90;99.90;;;;;;5030866;28;20046;-83
2022/07/28 08:49:11;;;;;;;8.93;2.03;;;21.90;99.90;;;;;;5029344;28;20064;-83
2022/07/28 08:51:41;;;;;;;5.32;1.65;;;21.90;99.90;;;;;;5028250;28;20126;-83
2022/07/28 08:54:11;;;;;;;2.63;1.50;;;22.00;99.90;;;;;;5032177;28;20080;-83
2022/07/28 08:56:40;;;;;;;7.53;1.52;;;21.90;99.90;;;;;;5031013;28;20049;-83
2022/07/28 08:59:13;;;;;;;9.05;1.83;;;22.00;99.90;;;;;;5027467;28;20133;-83
2022/07/28 09:01:40;;;;;;;9.25;1.77;;;22.00;99.90;;;;;;5023115;28;20077;-83
2022/07/28 09:04:07;;;;;;;10.15;1.63;;;22.00;99.90;;;;;;5029700;28;20076;-83
2022/07/28 09:06:40;;;;;;;3.33;1.35;;;21.90;99.90;;;;;;5029318;28;20053;-83
2022/07/28 09:09:08;;;;;;;5.53;2.00;;;22.00;99.90;;;;;;5028659;28;20508;-82
2022/07/28 09:11:38;;;;;;;2.53;1.40;;;22.00;99.90;;;;;;5030368;28;20507;-83
2022/07/28 09:14:05;;;;;;;4.20;1.35;;;22.10;99.90;;;;;;5029694;28;20046;-83
2022/07/28 09:16:32;;;;;;;5.35;1.30;;;22.10;99.90;;;;;;5028687;28;20073;-83
2022/07/28 09:18:59;;;;;;;10.27;2.13;;;22.20;99.90;;;;;;5030689;28;20069;-83
2022/07/28 09:21:26;;;;;;;4.57;2.33;;;22.30;99.90;;;;;;5028952;28;20058;-83
2022/07/28 09:23:53;;;;;;;6.38;1.98;;;22.30;99.90;;;;;;5029956;28;20077;-83
2022/07/28 09:26:19;;;;;;;4.55;1.52;;;22.30;99.90;;;;;;5026455;28;20113;-83
2022/07/28 09:28:48;;;;;;;5.95;1.63;;;22.30;99.90;;;;;;5028286;28;20136;-83
2022/07/28 09:31:15;;;;;;;9.23;1.80;;;22.40;99.90;;;;;;5029827;28;20113;-83
2022/07/28 09:34:11;;;;;;;3.60;1.38;;;22.50;99.90;;;;;;5029727;28;20057;-83
2022/07/28 09:36:40;;;;;;;3.95;1.60;;;22.60;99.90;;;;;;5022766;28;20057;-84
2022/07/28 09:39:07;;;;;;;3.85;1.50;;;22.60;99.90;;;;;;5031176;28;20053;-83
2022/07/28 09:41:54;;;;;;;5.63;1.60;;;22.70;99.90;;;;;;5033530;28;20055;-83
2022/07/28 09:44:22;;;;;;;4.68;2.00;;;22.80;99.90;;;;;;5029686;28;20049;-83
2022/07/28 09:46:49;;;;;;;4.10;2.00;;;22.80;99.90;;;;;;5033870;28;20045;-83
2022/07/28 09:49:17;;;;;;;7.68;1.70;;;22.90;99.90;;;;;;5036748;28;20072;-83
2022/07/28 09:52:02;;;;;;;4.72;1.77;;;22.90;99.90;;;;;;5033653;28;20053;-83
2022/07/28 09:54:28;;;;;;;8.52;1.98;;;23.00;99.90;;;;;;5031498;28;20041;-83
2022/07/28 09:56:55;;;;;;;8.00;1.77;;;23.10;99.90;;;;;;5032642;28;20041;-83
2022/07/28 09:59:22;;;;;;;3.85;1.50;;;23.10;99.90;;;;;;5025105;28;20053;-83
2022/07/28 10:01:55;;;;;;;4.45;1.52;;;23.20;99.90;;;;;;5033389;28;20053;-83
2022/07/28 10:04:42;;;;;;;8.55;1.95;;;23.20;99.90;;;;;;5032945;28;20557;-83
2022/07/28 10:07:15;;;;;;;3.30;1.50;;;23.30;99.90;;;;;;5030707;28;20081;-83
2022/07/28 10:09:53;;;;;;;4.03;1.60;;;23.30;99.90;;;;;;5030206;28;20046;-83
2022/07/28 10:12:22;;;;;;;2.72;1.48;;;23.40;99.90;;;;;;5030774;28;20069;-83
2022/07/28 10:14:50;;;;;;;10.10;1.40;;;23.40;99.90;;;;;;5031661;28;20046;-83
2022/07/28 10:17:30;;;;;;;2.83;1.40;;;23.50;99.90;;;;;;5035771;28;20111;-84
2022/07/28 10:19:59;;;;;;;5.05;1.50;;;23.60;99.90;;;;;;5032304;28;20084;-82
2022/07/28 10:22:28;;;;;;;5.45;1.48;;;23.60;99.90;;;;;;5033702;28;20061;-82
2022/07/28 10:24:58;;;;;;;2.55;1.50;;;23.60;99.90;;;;;;5029197;28;20512;-82
2022/07/28 10:27:26;;;;;;;2.53;1.25;;;23.60;99.90;;;;;;5036620;28;20092;-83
2022/07/28 10:29:59;;;;;;;5.93;1.60;;;23.60;99.90;;;;;;5040672;28;20048;-81
2022/07/28 10:32:30;;;;;;;3.88;1.45;;;23.70;99.90;;;;;;5040741;28;20042;-82
2022/07/28 10:35:05;;;;;;;4.63;1.30;;;23.70;99.90;;;;;;5029433;28;20050;-82
2022/07/28 10:37:37;;;;;;;3.10;1.40;;;23.70;99.90;;;;;;5027450;28;20073;-83
2022/07/28 10:40:08;;;;;;;7.13;1.63;;;23.80;99.90;;;;;;5025645;28;20054;-83
2022/07/28 10:42:38;;;;;;;5.45;1.63;;;23.80;99.90;;;;;;5033265;28;20060;-83
2022/07/28 10:45:08;;;;;;;5.35;1.50;;;23.80;99.90;;;;;;5037614;28;20061;-83
2022/07/28 10:47:35;;;;;;;;;;;23.90;99.90;;;;;;5028640;28;20088;-83
2022/07/28 10:50:03;;;;;;;5.68;1.48;;;23.90;99.90;;;;;;5029053;28;20383;-83
2022/07/28 10:52:32;;;;;;;4.53;1.60;;;24.00;99.90;;;;;;5028005;28;20076;-82
2022/07/28 10:55:46;;;;;;;4.00;1.70;;;24.00;99.90;;;;;;5024283;28;20137;-83
2022/07/28 10:58:35;;;;;;;10.18;1.98;;;24.10;99.90;;;;;;5024770;28;20046;-82
2022/07/28 11:01:02;;;;;;;3.90;1.67;;;24.10;99.90;;;;;;5008781;28;20081;-83
2022/07/28 11:03:43;;;;;;;4.05;1.60;;;24.20;99.90;;;;;;5027310;28;20537;-82
2022/07/28 11:06:24;;;;;;;6.32;1.48;;;24.30;99.90;;;;;;5035604;28;20070;-82
2022/07/28 11:08:52;;;;;;;5.45;1.45;;;24.30;99.90;;;;;;5024214;28;20512;-83
2022/07/28 11:11:45;;;;;;;3.65;1.95;;;24.40;99.90;;;;;;5020773;28;20054;-82
2022/07/28 11:14:24;;;;;;;5.93;1.30;;;24.50;99.90;;;;;;5021672;28;20073;-83
2022/07/28 11:17:03;;;;;;;2.10;1.45;;;24.60;99.90;;;;;;5024027;28;20401;-83
2022/07/28 11:19:42;;;;;;;3.20;1.63;;;24.60;99.90;;;;;;5023135;28;20050;-83
2022/07/28 11:22:29;;;;;;;5.03;1.40;;;24.70;99.90;;;;;;5024577;28;20060;-83
2022/07/28 11:25:01;;;;;;;4.60;2.00;;;24.70;99.90;;;;;;5023665;28;20514;-82
2022/07/28 11:27:50;;;;;;;7.07;1.60;;;24.70;99.90;;;;;;5022314;28;20053;-83
2022/07/28 11:30:18;;;;;;;5.93;1.77;;;24.80;99.90;;;;;;5020595;28;20065;-82
2022/07/28 11:32:52;;;;;;;4.07;1.42;;;24.80;99.90;;;;;;5022345;28;20050;-83
2022/07/28 11:35:27;;;;;;;6.43;1.80;;;24.90;99.90;;;;;;5021832;28;20045;-83
2022/07/28 11:38:00;;;;;;;6.45;1.80;;;25.00;99.90;;;;;;5019618;28;20121;-83
2022/07/28 11:40:40;;;;;;;8.23;1.65;;;25.10;99.90;;;;;;5031193;28;20050;-83
2022/07/28 11:46:03;;;;;;;4.40;1.48;;;25.20;99.90;;;;;;5021877;28;20100;-83
2022/07/28 11:48:37;;;;;;;4.82;1.80;;;25.20;99.90;;;;;;5021381;28;20141;-83
2022/07/28 11:51:04;;;;;;;5.50;1.60;;;25.20;99.90;;;;;;5018725;28;20514;-83
2022/07/28 11:53:43;;;;;;;2.70;1.70;;;25.30;99.90;;;;;;5023016;28;20045;-83
2022/07/28 11:56:10;;;;;;;4.00;1.50;;;25.30;99.90;;;;;;5024814;28;20096;-82
2022/07/28 11:58:38;;;;;;;4.82;1.60;;;25.30;99.90;;;;;;5017907;28;20660;-82
2022/07/28 12:01:18;;;;;;;3.10;1.40;;;25.40;99.90;;;;;;5028703;28;20053;-83
2022/07/28 12:03:51;;;;;;;6.97;1.50;;;25.40;99.90;;;;;;5031041;28;20067;-83
2022/07/28 12:06:37;;;;;;;10.65;2.15;;;25.50;99.90;;;;;;5028171;28;20058;-83
2022/07/28 12:09:05;;;;;;;3.15;1.63;;;25.60;99.90;;;;;;5007293;28;20141;-83
2022/07/28 12:11:34;;;;;;;4.35;1.60;;;25.60;99.90;;;;;;5030056;28;20045;-83
2022/07/28 12:14:04;;;;;;;9.07;2.75;;;25.60;99.90;;;;;;5029816;28;20084;-83
2022/07/28 12:16:34;;;;;;;5.22;2.10;;;25.70;99.90;;;;;;5028113;28;20075;-83
2022/07/28 12:19:02;;;;;;;4.53;1.80;;;25.80;99.90;;;;;;5028813;28;20054;-83
2022/07/28 12:21:40;;;;;;;2.95;1.90;;;25.80;99.90;;;;;;5029331;28;20168;-83
2022/07/28 12:24:34;;;;;;;4.05;1.63;;;25.90;99.90;;;;;;5027109;28;20082;-83
2022/07/28 12:27:12;;;;;;;3.20;1.75;;;26.00;99.90;;;;;;5027423;28;20049;-83
2022/07/28 12:29:42;;;;;;;4.45;1.60;;;26.10;99.90;;;;;;5028994;28;20049;-83
2022/07/28 12:32:13;;;;;;;4.18;1.60;;;26.10;99.90;;;;;;5027235;28;20050;-83
2022/07/28 12:34:42;;;;;;;7.65;2.00;;;26.20;99.90;;;;;;5032925;28;20050;-82
2022/07/28 12:37:09;;;;;;;4.55;1.90;;;26.20;99.90;;;;;;5031816;28;20046;-83
2022/07/28 12:39:40;;;;;;;4.13;1.73;;;26.20;99.90;;;;;;5026257;28;20439;-83
2022/07/28 12:42:09;;;;;;;5.85;1.73;;;26.20;99.90;;;;;;5022163;28;20069;-83
2022/07/28 12:44:46;;;;;;;14.48;2.47;;;26.20;99.90;;;;;;5037892;28;20056;-83
2022/07/28 12:47:14;;;;;;;6.38;1.90;;;26.20;99.90;;;;;;5033639;28;20067;-83
2022/07/28 12:49:42;;;;;;;2.50;1.60;;;26.30;99.90;;;;;;5030890;28;20396;-84
2022/07/28 12:52:23;;;;;;;5.78;1.90;;;26.40;99.90;;;;;;5033170;28;20085;-83
2022/07/28 12:54:51;;;;;;;5.75;1.50;;;26.40;99.90;;;;;;5039586;28;20110;-83
2022/07/28 12:57:40;;;;;;;5.72;2.75;;;26.40;99.90;;;;;;5035453;28;20125;-83
2022/07/28 13:00:17;;;;;;;5.85;2.00;;;26.50;99.90;;;;;;5028057;28;20054;-83
2022/07/28 13:02:45;;;;;;;3.78;1.58;;;26.40;99.90;;;;;;5031556;28;20431;-83
2022/07/28 13:08:20;;;;;;;5.95;1.50;;;26.50;99.90;;;;;;5030036;28;20077;-82
2022/07/28 13:10:49;;;;;;;3.38;1.75;;;26.50;99.90;;;;;;5034322;28;20575;-84